createdAt,value
2019-01-19T00:04:12.788Z,0.40
2019-01-19T00:06:55.341Z,0.40
2019-01-19T00:09:38.537Z,0.40
2019-01-19T00:12:21.030Z,0.30
2019-01-19T00:15:04.035Z,-0.20
2019-01-19T00:17:47.019Z,0.40
2019-01-19T00:20:29.513Z,0.30
2019-01-19T00:23:12.639Z,0.30
2019-01-19T00:25:41.037Z,0.30
2019-01-19T00:28:23.974Z,0.30
2019-01-19T00:31:06.873Z,0.30
2019-01-19T00:33:33.377Z,0.30
2019-01-19T00:36:27.539Z,0.30
2019-01-19T00:42:13.744Z,0.30
2019-01-19T00:45:02.737Z,0.20
2019-01-19T00:47:45.282Z,0.30
2019-01-19T00:50:28.001Z,0.20
2019-01-19T00:53:10.974Z,0.20
2019-01-19T00:56:01.811Z,0.30
2019-01-19T00:58:44.341Z,-0.50
2019-01-19T01:01:00.402Z,0.30
2019-01-19T01:03:16.320Z,0.20
2019-01-19T01:05:32.801Z,0.20
2019-01-19T01:07:48.416Z,0.30
2019-01-19T01:10:04.105Z,0.20
2019-01-19T01:12:20.284Z,0.40
2019-01-19T01:14:36.892Z,0.20
2019-01-19T01:16:53.089Z,0.20
2019-01-19T01:19:08.880Z,0.20
2019-01-19T01:21:25.085Z,0.10
2019-01-19T01:23:41.591Z,0.10
2019-01-19T01:25:58.223Z,0.10
2019-01-19T01:28:14.777Z,0.10
2019-01-19T01:30:31.682Z,0.10
2019-01-19T01:32:47.934Z,0.10
2019-01-19T01:35:03.532Z,0.10
2019-01-19T01:37:19.924Z,0.00
2019-01-19T01:39:35.741Z,0.00
2019-01-19T01:41:51.370Z,0.00
2019-01-19T01:44:08.315Z,0.00
2019-01-19T01:46:24.553Z,0.00
2019-01-19T01:48:41.563Z,0.00
2019-01-19T01:50:58.321Z,0.00
2019-01-19T01:53:14.836Z,0.00
2019-01-19T01:55:30.873Z,-0.10
2019-01-19T01:57:46.609Z,-0.10
2019-01-19T02:00:03.725Z,-0.60
2019-01-19T02:02:20.062Z,-0.10
2019-01-19T02:06:53.409Z,-0.10
2019-01-19T02:09:09.628Z,-0.10
2019-01-19T02:11:25.923Z,-0.10
2019-01-19T02:13:42.620Z,-0.10
2019-01-19T02:15:59.389Z,-0.10
2019-01-19T02:18:15.046Z,-0.10
2019-01-19T02:20:30.941Z,0.00
2019-01-19T02:22:46.677Z,-0.10
2019-01-19T02:25:03.093Z,0.00
2019-01-19T02:27:19.283Z,-0.10
2019-01-19T02:29:36.221Z,0.00
2019-01-19T02:31:52.738Z,-0.10
2019-01-19T02:34:09.394Z,-0.20
2019-01-19T02:36:25.665Z,-0.20
2019-01-19T02:38:41.650Z,-0.20
2019-01-19T02:40:58.112Z,-0.20
2019-01-19T02:43:14.931Z,-0.20
2019-01-19T02:45:31.956Z,-0.20
2019-01-19T02:47:49.064Z,-0.10
2019-01-19T02:50:05.540Z,-0.10
2019-01-19T02:52:22.169Z,-0.10
2019-01-19T02:54:38.425Z,-0.10
2019-01-19T02:56:55.562Z,-0.20
2019-01-19T02:59:11.959Z,-0.50
2019-01-19T03:01:28.705Z,-0.20
2019-01-19T03:03:44.744Z,-0.10
2019-01-19T03:06:00.942Z,-0.10
2019-01-19T03:08:16.753Z,-0.10
2019-01-19T03:10:32.905Z,-0.10
2019-01-19T03:12:48.874Z,-0.10
2019-01-19T03:15:04.581Z,-0.10
2019-01-19T03:17:24.857Z,-0.10
2019-01-19T03:19:51.818Z,-0.20
2019-01-19T03:22:34.866Z,-0.20
2019-01-19T03:25:17.406Z,-0.20
2019-01-19T03:27:59.713Z,-0.20
2019-01-19T03:30:42.797Z,-0.20
2019-01-19T03:33:25.782Z,-0.20
2019-01-19T03:36:08.712Z,-0.20
2019-01-19T03:38:54.906Z,-0.20
2019-01-19T03:41:38.789Z,-0.20
2019-01-19T03:44:28.859Z,-0.30
2019-01-19T03:47:11.818Z,-0.40
2019-01-19T03:49:54.361Z,-0.40
2019-01-19T03:52:25.616Z,-0.30
2019-01-19T03:54:54.387Z,-0.30
2019-01-19T04:00:25.821Z,-0.40
2019-01-19T04:02:42.954Z,-0.50
2019-01-19T04:04:59.399Z,-0.40
2019-01-19T04:07:16.475Z,-0.40
2019-01-19T04:09:32.537Z,-0.40
2019-01-19T04:11:48.321Z,-0.40
2019-01-19T04:14:04.752Z,-0.50
2019-01-19T04:16:20.421Z,-0.40
2019-01-19T04:18:36.765Z,-0.50
2019-01-19T04:20:52.729Z,-0.60
2019-01-19T04:23:09.059Z,-0.60
2019-01-19T04:25:25.725Z,-0.60
2019-01-19T04:27:42.442Z,-0.10
2019-01-19T04:29:58.847Z,-0.50
2019-01-19T04:32:14.606Z,-0.70
2019-01-19T04:34:30.852Z,-0.60
2019-01-19T04:36:47.126Z,-0.60
2019-01-19T04:39:05.561Z,-0.70
2019-01-19T04:41:22.488Z,-0.80
2019-01-19T04:43:39.037Z,-0.70
2019-01-19T04:45:55.302Z,-0.60
2019-01-19T04:48:12.287Z,-0.70
2019-01-19T04:50:28.741Z,-0.70
2019-01-19T04:52:45.249Z,-0.70
2019-01-19T04:55:01.478Z,-0.70
2019-01-19T04:57:17.949Z,-0.70
2019-01-19T04:59:34.387Z,-0.70
2019-01-19T05:01:50.709Z,-0.70
2019-01-19T05:04:06.789Z,-0.90
2019-01-19T05:06:30.281Z,-0.90
2019-01-19T05:08:40.465Z,-0.90
2019-01-19T05:10:56.790Z,-0.90
2019-01-19T05:13:12.818Z,-1.00
2019-01-19T05:15:29.300Z,-1.00
2019-01-19T05:17:45.696Z,-1.10
2019-01-19T05:20:01.593Z,-1.10
2019-01-19T05:31:15.256Z,-0.90
2019-01-19T05:33:31.777Z,-1.00
2019-01-19T05:35:48.848Z,-0.90
2019-01-19T05:38:05.641Z,-0.80
2019-01-19T05:40:21.889Z,-0.90
2019-01-19T05:42:38.087Z,-1.00
2019-01-19T05:44:54.665Z,-1.00
2019-01-19T05:47:11.553Z,-1.00
2019-01-19T05:49:27.874Z,-1.10
2019-01-19T05:51:43.599Z,-1.10
2019-01-19T05:53:59.877Z,-1.10
2019-01-19T05:56:15.352Z,-1.00
2019-01-19T05:58:31.872Z,-1.10
2019-01-19T06:00:47.756Z,-1.00
2019-01-19T06:03:03.580Z,-0.90
2019-01-19T06:05:19.255Z,-0.90
2019-01-19T06:07:35.657Z,-1.00
2019-01-19T06:09:51.879Z,-0.90
2019-01-19T06:12:08.494Z,-1.00
2019-01-19T06:14:24.957Z,-0.90
2019-01-19T06:18:58.632Z,-0.90
2019-01-19T06:21:15.762Z,-1.00
2019-01-19T06:23:32.694Z,-0.90
2019-01-19T06:25:49.138Z,-0.90
2019-01-19T06:28:05.599Z,-1.00
2019-01-19T06:30:21.828Z,-1.00
2019-01-19T06:32:38.441Z,-1.00
2019-01-19T06:34:54.475Z,-0.90
2019-01-19T06:37:10.399Z,-1.00
2019-01-19T06:39:25.760Z,-1.00
2019-01-19T06:41:41.621Z,-0.90
2019-01-19T06:43:57.357Z,-1.00
2019-01-19T06:46:13.445Z,-1.00
2019-01-19T06:48:30.053Z,-1.00
2019-01-19T06:50:46.387Z,-1.10
2019-01-19T06:53:03.163Z,-1.10
2019-01-19T06:55:19.713Z,-1.10
2019-01-19T06:57:36.273Z,-1.00
2019-01-19T06:59:52.989Z,-1.10
2019-01-19T07:02:08.405Z,-1.10
2019-01-19T07:04:23.814Z,-1.20
2019-01-19T07:06:39.556Z,-1.30
2019-01-19T07:08:55.336Z,-1.30
2019-01-19T07:11:11.252Z,-1.30
2019-01-19T07:13:27.521Z,-1.20
2019-01-19T07:15:43.729Z,-1.30
2019-01-19T07:20:16.873Z,-1.30
2019-01-19T07:22:33.613Z,-1.20
2019-01-19T07:24:49.299Z,-1.20
2019-01-19T07:27:05.814Z,-1.20
2019-01-19T07:29:22.853Z,-1.30
2019-01-19T07:31:38.761Z,-1.20
2019-01-19T07:33:55.152Z,-1.30
2019-01-19T07:36:10.852Z,-1.30
2019-01-19T07:38:28.691Z,-1.20
2019-01-19T07:40:45.766Z,-1.10
2019-01-19T07:43:07.108Z,-1.20
2019-01-19T07:45:23.044Z,-1.10
2019-01-19T07:47:39.181Z,-1.20
2019-01-19T07:52:19.362Z,-1.10
2019-01-19T07:54:36.091Z,-1.10
2019-01-19T07:56:52.275Z,-1.00
2019-01-19T07:59:08.119Z,-1.00
2019-01-19T08:01:25.230Z,-1.00
2019-01-19T08:03:41.996Z,-1.00
2019-01-19T08:05:58.259Z,-1.00
2019-01-19T08:08:14.409Z,-1.00
2019-01-19T08:10:31.152Z,-0.90
2019-01-19T08:12:47.452Z,-0.90
2019-01-19T08:15:03.701Z,-0.80
2019-01-19T08:17:20.613Z,-0.80
2019-01-19T08:19:37.321Z,-0.80
2019-01-19T08:21:53.690Z,-0.80
2019-01-19T08:24:09.511Z,-0.80
2019-01-19T08:26:25.740Z,-0.80
2019-01-19T08:28:41.891Z,-0.80
2019-01-19T08:30:57.589Z,-0.80
2019-01-19T08:33:13.468Z,-0.80
2019-01-19T08:35:30.112Z,-0.70
2019-01-19T08:37:46.765Z,-0.70
2019-01-19T08:40:03.421Z,-0.60
2019-01-19T08:42:19.605Z,-0.50
2019-01-19T08:44:35.885Z,-0.50
2019-01-19T08:46:52.100Z,-0.50
2019-01-19T08:49:08.483Z,-0.40
2019-01-19T08:51:24.580Z,-0.40
2019-01-19T08:53:41.033Z,-0.40
2019-01-19T08:55:57.328Z,-0.60
2019-01-19T08:58:13.513Z,-0.30
2019-01-19T09:00:29.433Z,-0.20
2019-01-19T09:02:45.641Z,-0.30
2019-01-19T09:05:02.581Z,-0.10
2019-01-19T09:07:19.366Z,-0.10
2019-01-19T09:09:35.783Z,0.20
2019-01-19T09:11:52.241Z,0.00
2019-01-19T09:14:08.157Z,-0.10
2019-01-19T09:16:27.310Z,0.00
2019-01-19T09:18:43.993Z,0.00
2019-01-19T09:21:00.405Z,0.00
2019-01-19T09:25:52.379Z,0.30
2019-01-19T09:28:08.919Z,0.30
2019-01-19T09:30:25.214Z,0.30
2019-01-19T09:32:41.271Z,0.30
2019-01-19T09:34:57.558Z,0.50
2019-01-19T09:37:13.163Z,0.60
2019-01-19T09:39:30.030Z,0.50
2019-01-19T09:41:45.897Z,0.60
2019-01-19T09:44:02.068Z,0.70
2019-01-19T09:46:18.357Z,0.70
2019-01-19T09:48:34.251Z,0.80
2019-01-19T09:50:51.218Z,0.80
2019-01-19T09:53:07.513Z,0.80
2019-01-19T09:55:24.472Z,0.90
2019-01-19T09:57:40.480Z,0.90
2019-01-19T09:59:57.377Z,0.80
2019-01-19T10:02:14.449Z,0.80
2019-01-19T10:04:31.165Z,0.80
2019-01-19T10:06:48.306Z,0.80
2019-01-19T10:09:06.995Z,0.80
2019-01-19T10:11:23.710Z,0.90
2019-01-19T10:13:39.397Z,1.00
2019-01-19T10:15:55.797Z,1.00
2019-01-19T10:18:12.173Z,1.10
2019-01-19T10:20:29.064Z,1.00
2019-01-19T10:22:44.837Z,1.10
2019-01-19T10:25:01.085Z,1.10
2019-01-19T10:27:17.002Z,1.20
2019-01-19T10:29:33.358Z,1.30
2019-01-19T10:31:49.641Z,1.30
2019-01-19T10:34:05.165Z,1.30
2019-01-19T10:36:21.978Z,1.30
2019-01-19T10:38:38.406Z,1.20
2019-01-19T10:40:54.577Z,1.20
2019-01-19T10:43:11.027Z,1.30
2019-01-19T10:45:26.609Z,1.40
2019-01-19T10:47:42.646Z,1.40
2019-01-19T10:49:58.885Z,1.40
2019-01-19T10:52:15.117Z,1.40
2019-01-19T10:54:30.793Z,1.40
2019-01-19T10:56:46.789Z,1.40
2019-01-19T10:59:03.233Z,1.40
2019-01-19T11:01:19.588Z,1.60
2019-01-19T11:03:35.634Z,1.60
2019-01-19T11:05:52.156Z,1.60
2019-01-19T11:08:10.100Z,1.50
2019-01-19T11:10:26.976Z,1.50
2019-01-19T11:12:43.227Z,1.50
2019-01-19T11:14:59.784Z,1.60
2019-01-19T11:17:15.940Z,1.60
2019-01-19T11:21:49.881Z,1.90
2019-01-19T11:24:05.745Z,1.80
2019-01-19T11:26:22.048Z,1.90
2019-01-19T11:28:38.147Z,2.10
2019-01-19T11:30:54.955Z,2.10
2019-01-19T11:33:11.478Z,2.10
2019-01-19T11:35:28.188Z,2.30
2019-01-19T11:37:44.232Z,2.30
2019-01-19T11:40:00.692Z,2.30
2019-01-19T11:42:16.641Z,2.30
2019-01-19T11:44:33.393Z,2.80
2019-01-19T11:46:49.302Z,3.70
2019-01-19T11:49:06.265Z,4.80
2019-01-19T11:51:22.072Z,5.60
2019-01-19T11:53:38.324Z,6.10
2019-01-19T11:55:55.049Z,6.30
2019-01-19T11:58:11.079Z,6.70
2019-01-19T12:00:30.117Z,7.10
2019-01-19T12:02:46.388Z,7.30
2019-01-19T12:05:02.247Z,7.70
2019-01-19T12:07:18.488Z,7.40
2019-01-19T12:09:34.501Z,7.40
2019-01-19T12:11:50.032Z,8.00
2019-01-19T12:14:05.433Z,9.10
2019-01-19T12:16:21.415Z,9.20
2019-01-19T12:18:37.736Z,9.20
2019-01-19T12:20:53.530Z,8.20
2019-01-19T12:23:10.055Z,7.70
2019-01-19T12:25:26.732Z,7.70
2019-01-19T12:27:43.610Z,8.00
2019-01-19T12:29:59.995Z,8.20
2019-01-19T12:32:16.344Z,8.50
2019-01-19T12:34:32.567Z,8.50
2019-01-19T12:36:48.169Z,8.30
2019-01-19T12:39:08.333Z,7.90
2019-01-19T12:41:24.572Z,7.40
2019-01-19T12:43:40.585Z,7.30
2019-01-19T12:45:56.854Z,7.20
2019-01-19T12:48:12.267Z,7.80
2019-01-19T12:50:28.093Z,8.50
2019-01-19T12:52:44.439Z,8.80
2019-01-19T12:55:00.525Z,8.70
2019-01-19T12:57:16.117Z,8.90
2019-01-19T12:59:32.361Z,8.80
2019-01-19T13:01:48.489Z,8.70
2019-01-19T13:04:04.796Z,9.20
2019-01-19T13:06:21.152Z,9.00
2019-01-19T13:08:36.734Z,8.70
2019-01-19T13:10:52.669Z,8.50
2019-01-19T13:13:08.382Z,8.10
2019-01-19T13:15:23.832Z,8.20
2019-01-19T13:17:39.329Z,8.10
2019-01-19T13:19:55.113Z,7.70
2019-01-19T13:24:29.418Z,7.80
2019-01-19T13:26:45.427Z,7.90
2019-01-19T13:29:01.421Z,8.10
2019-01-19T13:31:17.868Z,8.40
2019-01-19T13:33:33.382Z,7.80
2019-01-19T13:35:49.562Z,7.60
2019-01-19T13:38:05.398Z,7.70
2019-01-19T13:40:21.945Z,7.80
2019-01-19T13:42:37.953Z,7.90
2019-01-19T13:44:53.433Z,8.00
2019-01-19T13:47:09.006Z,8.00
2019-01-19T13:49:34.399Z,8.20
2019-01-19T13:55:13.495Z,7.50
2019-01-19T13:57:56.327Z,7.00
2019-01-19T14:00:39.397Z,6.80
2019-01-19T14:03:21.695Z,6.80
2019-01-19T14:06:04.489Z,6.40
2019-01-19T14:08:20.510Z,6.20
2019-01-19T14:10:36.190Z,6.10
2019-01-19T14:12:51.609Z,5.80
2019-01-19T14:15:08.337Z,5.80
2019-01-19T14:17:23.989Z,5.70
2019-01-19T14:19:40.713Z,5.50
2019-01-19T14:21:56.197Z,5.50
2019-01-19T14:24:12.616Z,5.30
2019-01-19T14:26:28.965Z,5.30
2019-01-19T14:28:45.900Z,5.10
2019-01-19T14:31:01.452Z,5.30
2019-01-19T14:33:18.195Z,5.60
2019-01-19T14:35:34.001Z,5.60
2019-01-19T14:37:50.968Z,5.80
2019-01-19T14:40:06.691Z,5.50
2019-01-19T14:42:23.097Z,5.40
2019-01-19T14:44:39.392Z,5.20
2019-01-19T14:46:55.036Z,5.30
2019-01-19T14:49:10.480Z,5.30
2019-01-19T14:51:26.994Z,5.20
2019-01-19T14:53:42.980Z,5.20
2019-01-19T14:55:59.878Z,5.00
2019-01-19T14:58:15.767Z,4.80
2019-01-19T15:00:31.806Z,4.50
2019-01-19T15:02:48.029Z,4.40
2019-01-19T15:05:03.699Z,4.40
2019-01-19T15:07:19.945Z,4.30
2019-01-19T15:09:36.185Z,4.30
2019-01-19T15:11:51.613Z,4.40
2019-01-19T15:14:07.705Z,4.40
2019-01-19T15:16:23.669Z,4.40
2019-01-19T15:18:39.360Z,4.40
2019-01-19T15:20:55.234Z,4.20
2019-01-19T15:23:12.308Z,4.00
2019-01-19T15:25:28.394Z,3.90
2019-01-19T15:27:44.953Z,3.60
2019-01-19T15:30:01.119Z,3.50
2019-01-19T15:32:17.831Z,3.30
2019-01-19T15:34:33.613Z,3.20
2019-01-19T15:37:14.864Z,2.90
2019-01-19T15:39:50.730Z,2.80
2019-01-19T15:42:31.370Z,2.60
2019-01-19T15:45:00.541Z,2.50
2019-01-19T15:47:29.410Z,2.40
2019-01-19T15:49:56.623Z,2.30
2019-01-19T15:52:27.723Z,2.30
2019-01-19T15:54:41.665Z,2.10
2019-01-19T15:57:01.565Z,1.90
2019-01-19T15:59:51.898Z,1.90
2019-01-19T16:02:31.638Z,1.80
2019-01-19T16:05:17.521Z,1.50
2019-01-19T16:07:57.220Z,1.50
2019-01-19T16:10:26.041Z,1.60
2019-01-19T16:13:03.291Z,1.50
2019-01-19T16:15:41.884Z,1.50
2019-01-19T16:18:22.328Z,1.50
2019-01-19T16:21:01.660Z,1.40
2019-01-19T16:23:41.593Z,1.40
2019-01-19T16:26:28.944Z,1.40
2019-01-19T16:28:46.044Z,1.50
2019-01-19T16:31:23.456Z,1.40
2019-01-19T16:33:59.079Z,1.40
2019-01-19T16:36:32.082Z,1.50
2019-01-19T16:38:47.568Z,1.50
2019-01-19T16:41:32.635Z,1.50
2019-01-19T16:44:00.282Z,1.40
2019-01-19T16:46:48.390Z,1.30
2019-01-19T16:49:29.237Z,1.30
2019-01-19T16:52:25.773Z,1.10
2019-01-19T16:55:11.213Z,1.10
2019-01-19T16:57:48.933Z,1.10
2019-01-19T17:00:35.536Z,1.00
2019-01-19T17:03:15.955Z,1.10
2019-01-19T17:05:36.418Z,1.10
2019-01-19T17:08:01.941Z,0.90
2019-01-19T17:10:29.063Z,0.90
2019-01-19T17:13:12.404Z,1.00
2019-01-19T17:15:46.237Z,1.00
2019-01-19T17:18:18.065Z,1.00
2019-01-19T17:20:54.704Z,0.90
2019-01-19T17:23:27.344Z,1.00
2019-01-19T17:26:20.608Z,0.90
2019-01-19T17:28:50.601Z,1.00
2019-01-19T17:31:22.585Z,0.80
2019-01-19T17:34:26.507Z,0.80
2019-01-19T17:36:41.720Z,0.80
2019-01-19T17:39:14.497Z,0.70
2019-01-19T17:41:44.260Z,0.70
2019-01-19T17:44:39.060Z,0.70
2019-01-19T17:46:56.731Z,0.70
2019-01-19T17:49:53.829Z,0.70
2019-01-19T17:52:54.408Z,0.80
2019-01-19T17:55:35.841Z,0.70
2019-01-19T17:58:08.661Z,0.60
2019-01-19T18:00:57.292Z,0.60
2019-01-19T18:03:35.903Z,0.60
2019-01-19T18:06:08.565Z,0.50
2019-01-19T18:08:35.693Z,0.50
2019-01-19T18:11:13.044Z,0.50
2019-01-19T18:13:36.112Z,0.50
2019-01-19T18:16:02.713Z,0.50
2019-01-19T18:18:28.080Z,0.40
2019-01-19T18:20:59.516Z,0.40
2019-01-19T18:23:48.709Z,0.40
2019-01-19T18:26:28.999Z,0.40
2019-01-19T18:29:20.773Z,0.40
2019-01-19T18:32:03.136Z,0.40
2019-01-19T18:34:25.653Z,0.30
2019-01-19T18:36:58.251Z,0.40
2019-01-19T18:39:31.477Z,0.40
2019-01-19T18:41:46.702Z,0.30
2019-01-19T18:44:25.359Z,0.20
2019-01-19T18:46:52.637Z,0.20
2019-01-19T18:49:20.641Z,0.30
2019-01-19T18:51:59.493Z,0.30
2019-01-19T18:54:30.844Z,0.30
2019-01-19T18:57:30.289Z,0.30
2019-01-19T19:00:07.174Z,0.30
2019-01-19T19:02:41.070Z,0.20
2019-01-19T19:05:25.658Z,0.20
2019-01-19T19:08:11.037Z,0.10
2019-01-19T19:10:54.628Z,0.10
2019-01-19T19:13:18.737Z,0.10
2019-01-19T19:15:46.092Z,0.10
2019-01-19T19:18:43.446Z,0.00
2019-01-19T19:21:15.714Z,-0.20
2019-01-19T19:23:41.181Z,-0.10
2019-01-19T19:26:04.952Z,0.10
2019-01-19T19:28:34.134Z,0.10
2019-01-19T19:31:24.852Z,0.10
2019-01-19T19:34:08.424Z,0.00
2019-01-19T19:36:58.699Z,0.10
2019-01-19T19:39:47.248Z,-0.10
2019-01-19T19:42:29.505Z,0.00
2019-01-19T19:45:09.180Z,-0.10
2019-01-19T19:47:55.039Z,0.00
2019-01-19T19:50:34.923Z,0.00
2019-01-19T19:52:39.453Z,-0.10
2019-01-19T19:54:52.438Z,-0.20
2019-01-19T19:56:58.325Z,-0.20
2019-01-19T19:59:02.758Z,-0.30
2019-01-19T20:01:07.701Z,-0.20
2019-01-19T20:03:12.014Z,-0.10
2019-01-19T20:05:16.348Z,-0.10
2019-01-19T20:07:21.253Z,-0.20
2019-01-19T20:09:26.381Z,-0.20
2019-01-19T20:11:31.523Z,-0.20
2019-01-19T20:13:36.245Z,-0.30
2019-01-19T20:15:40.469Z,-0.30
2019-01-19T20:17:44.633Z,-0.30
2019-01-19T20:19:49.068Z,-0.20
2019-01-19T20:21:54.389Z,-0.20
2019-01-19T20:23:58.882Z,-0.20
2019-01-19T20:26:03.059Z,-0.20
2019-01-19T20:28:07.901Z,-0.20
2019-01-19T20:30:14.435Z,-0.20
2019-01-19T20:32:19.240Z,-0.20
2019-01-19T20:34:23.784Z,-0.30
2019-01-19T20:36:28.276Z,-0.40
2019-01-19T20:38:33.174Z,-0.40
2019-01-19T20:40:37.646Z,-0.40
2019-01-19T20:42:42.670Z,-0.40
2019-01-19T20:44:47.582Z,-0.30
2019-01-19T20:46:52.092Z,-0.30
2019-01-19T20:48:56.793Z,-0.30
2019-01-19T20:51:01.110Z,-0.40
2019-01-19T20:53:05.860Z,-0.40
2019-01-19T20:55:10.222Z,-0.30
2019-01-19T20:57:14.139Z,-0.40
2019-01-19T20:59:27.747Z,-0.50
2019-01-19T21:01:32.251Z,-0.30
2019-01-19T21:03:36.950Z,-0.30
2019-01-19T21:05:41.593Z,-0.20
2019-01-19T21:07:46.121Z,-0.20
2019-01-19T21:09:50.416Z,-0.30
2019-01-19T21:11:54.934Z,-0.30
2019-01-19T21:13:59.274Z,-0.40
2019-01-19T21:16:04.281Z,-0.40
2019-01-19T21:18:08.933Z,-0.50
2019-01-19T21:20:13.773Z,-0.60
2019-01-19T21:22:18.004Z,-0.50
2019-01-19T21:24:22.104Z,-0.70
2019-01-19T21:26:26.732Z,-0.70
2019-01-19T21:28:31.209Z,-0.60
2019-01-19T21:30:35.576Z,-0.60
2019-01-19T21:32:40.042Z,-0.50
2019-01-19T21:34:44.152Z,-0.50
2019-01-19T21:36:48.361Z,-0.40
2019-01-19T21:38:52.268Z,-0.50
2019-01-19T21:40:56.237Z,-0.40
2019-01-19T21:43:00.084Z,-0.50
2019-01-19T21:45:05.667Z,-0.50
2019-01-19T21:47:09.716Z,-0.60
2019-01-19T21:49:14.800Z,-0.60
2019-01-19T21:51:19.457Z,-0.50
2019-01-19T21:53:23.824Z,-0.50
2019-01-19T21:55:28.392Z,-0.60
2019-01-19T21:57:32.848Z,-0.70
2019-01-19T21:59:37.249Z,-0.80
2019-01-19T22:01:41.684Z,-0.70
2019-01-19T22:03:46.153Z,-0.60
2019-01-19T22:05:50.828Z,-0.70
2019-01-19T22:07:55.197Z,-0.70
2019-01-19T22:09:59.172Z,-0.60
2019-01-19T22:12:03.973Z,-0.70
2019-01-19T22:14:07.990Z,-0.90
2019-01-19T22:16:12.773Z,-1.00
2019-01-19T22:18:17.346Z,-0.90
2019-01-19T22:20:21.323Z,-0.80
2019-01-19T22:22:25.323Z,-0.80
2019-01-19T22:24:29.848Z,-1.00
2019-01-19T22:26:35.101Z,-0.80
2019-01-19T22:28:40.229Z,-0.70
2019-01-19T22:30:44.864Z,-0.70
2019-01-19T22:32:52.000Z,-0.60
2019-01-19T22:34:56.141Z,-0.70
2019-01-19T22:37:00.120Z,-0.80
2019-01-19T22:39:05.988Z,-0.80
2019-01-19T22:41:09.833Z,-0.70
2019-01-19T22:43:18.100Z,-0.70
2019-01-19T22:45:23.092Z,-0.80
2019-01-19T22:47:27.508Z,-0.80
2019-01-19T22:49:32.171Z,-0.80
2019-01-19T22:51:36.855Z,-0.80
2019-01-19T22:53:41.339Z,-1.00
2019-01-19T22:55:46.080Z,-0.80
2019-01-19T22:57:50.650Z,-0.80
2019-01-19T22:59:54.581Z,-0.70
2019-01-19T23:02:08.001Z,-0.70
2019-01-19T23:04:12.621Z,-0.70
2019-01-19T23:06:16.986Z,-0.70
2019-01-19T23:08:21.721Z,-0.80
2019-01-19T23:10:26.307Z,-0.80
2019-01-19T23:12:31.356Z,-0.90
2019-01-19T23:14:36.865Z,-0.90
2019-01-19T23:16:42.324Z,-0.90
2019-01-19T23:18:46.860Z,-0.90
2019-01-19T23:20:51.369Z,-0.80
2019-01-19T23:22:55.769Z,-0.80
2019-01-19T23:25:00.469Z,-0.80
2019-01-19T23:27:07.475Z,-0.80
2019-01-19T23:29:12.171Z,-0.80
2019-01-19T23:31:17.233Z,-0.90
2019-01-19T23:33:21.425Z,-0.90
2019-01-19T23:35:25.649Z,-0.90
2019-01-19T23:37:29.984Z,-0.90
2019-01-19T23:39:34.638Z,-0.90
2019-01-19T23:41:39.513Z,-0.90
2019-01-19T23:43:44.583Z,-0.90
2019-01-19T23:45:49.080Z,-1.00
2019-01-19T23:47:53.808Z,-1.00
2019-01-19T23:49:57.805Z,-0.90
2019-01-19T23:52:02.685Z,-1.00
2019-01-19T23:54:06.787Z,-0.90
2019-01-19T23:56:10.936Z,-0.90
2019-01-19T23:58:14.832Z,-0.90
